sensor_id;sensor_type;location;lat;lon;timestamp;P1;durP1;ratioP1;P2;durP2;ratioP2
68757;SDS011;55747;51.998;4.466;2022-08-19T00:01:29;14.55;;;11.45;;
68757;SDS011;55747;51.998;4.466;2022-08-19T00:03:56;17.33;;;11.88;;
68757;SDS011;55747;51.998;4.466;2022-08-19T00:06:22;18.77;;;10.98;;
68757;SDS011;55747;51.998;4.466;2022-08-19T00:08:47;18.90;;;12.85;;
68757;SDS011;55747;51.998;4.466;2022-08-19T00:11:13;16.17;;;12.52;;
68757;SDS011;55747;51.998;4.466;2022-08-19T00:13:38;18.08;;;12.55;;
68757;SDS011;55747;51.998;4.466;2022-08-19T00:16:04;17.88;;;12.90;;
68757;SDS011;55747;51.998;4.466;2022-08-19T00:18:30;15.43;;;12.45;;
68757;SDS011;55747;51.998;4.466;2022-08-19T00:20:56;16.80;;;13.00;;
68757;SDS011;55747;51.998;4.466;2022-08-19T00:23:22;18.30;;;12.50;;
68757;SDS011;55747;51.998;4.466;2022-08-19T00:25:47;17.80;;;12.40;;
68757;SDS011;55747;51.998;4.466;2022-08-19T00:28:12;17.05;;;12.65;;
68757;SDS011;55747;51.998;4.466;2022-08-19T00:30:38;17.35;;;12.90;;
68757;SDS011;55747;51.998;4.466;2022-08-19T00:33:03;15.90;;;12.00;;
68757;SDS011;55747;51.998;4.466;2022-08-19T00:35:28;14.38;;;12.48;;
68757;SDS011;55747;51.998;4.466;2022-08-19T00:37:54;15.05;;;11.45;;
68757;SDS011;55747;51.998;4.466;2022-08-19T00:40:20;17.95;;;11.98;;
68757;SDS011;55747;51.998;4.466;2022-08-19T00:42:45;19.02;;;12.95;;
68757;SDS011;55747;51.998;4.466;2022-08-19T00:45:13;16.65;;;12.50;;
68757;SDS011;55747;51.998;4.466;2022-08-19T00:47:41;18.90;;;13.48;;
68757;SDS011;55747;51.998;4.466;2022-08-19T00:50:07;20.42;;;13.20;;
68757;SDS011;55747;51.998;4.466;2022-08-19T00:52:35;16.02;;;12.80;;
68757;SDS011;55747;51.998;4.466;2022-08-19T00:55:05;16.98;;;13.18;;
68757;SDS011;55747;51.998;4.466;2022-08-19T00:57:36;18.20;;;13.05;;
68757;SDS011;55747;51.998;4.466;2022-08-19T01:00:08;16.63;;;12.73;;
68757;SDS011;55747;51.998;4.466;2022-08-19T01:02:37;17.73;;;12.30;;
68757;SDS011;55747;51.998;4.466;2022-08-19T01:05:05;16.77;;;12.30;;
68757;SDS011;55747;51.998;4.466;2022-08-19T01:07:33;17.25;;;11.45;;
68757;SDS011;55747;51.998;4.466;2022-08-19T01:09:59;15.07;;;12.70;;
68757;SDS011;55747;51.998;4.466;2022-08-19T01:12:25;19.02;;;12.75;;
68757;SDS011;55747;51.998;4.466;2022-08-19T01:14:50;19.35;;;12.38;;
68757;SDS011;55747;51.998;4.466;2022-08-19T01:17:17;20.90;;;12.95;;
68757;SDS011;55747;51.998;4.466;2022-08-19T01:19:43;17.40;;;12.20;;
68757;SDS011;55747;51.998;4.466;2022-08-19T01:22:16;15.85;;;12.32;;
68757;SDS011;55747;51.998;4.466;2022-08-19T01:24:46;19.13;;;13.07;;
68757;SDS011;55747;51.998;4.466;2022-08-19T01:27:12;17.92;;;12.32;;
68757;SDS011;55747;51.998;4.466;2022-08-19T01:29:40;17.30;;;12.17;;
68757;SDS011;55747;51.998;4.466;2022-08-19T01:32:12;15.48;;;12.57;;
68757;SDS011;55747;51.998;4.466;2022-08-19T01:34:39;17.65;;;11.48;;
68757;SDS011;55747;51.998;4.466;2022-08-19T01:37:06;17.08;;;11.88;;
68757;SDS011;55747;51.998;4.466;2022-08-19T01:39:33;17.30;;;12.35;;
68757;SDS011;55747;51.998;4.466;2022-08-19T01:41:59;18.88;;;12.45;;
68757;SDS011;55747;51.998;4.466;2022-08-19T01:44:27;19.67;;;12.43;;
68757;SDS011;55747;51.998;4.466;2022-08-19T01:46:53;16.45;;;12.52;;
68757;SDS011;55747;51.998;4.466;2022-08-19T01:49:20;18.20;;;12.73;;
68757;SDS011;55747;51.998;4.466;2022-08-19T01:51:47;17.80;;;12.15;;
68757;SDS011;55747;51.998;4.466;2022-08-19T01:54:14;16.88;;;11.98;;
68757;SDS011;55747;51.998;4.466;2022-08-19T01:56:41;19.85;;;12.30;;
68757;SDS011;55747;51.998;4.466;2022-08-19T01:59:08;18.20;;;12.35;;
68757;SDS011;55747;51.998;4.466;2022-08-19T02:01:38;19.15;;;12.48;;
68757;SDS011;55747;51.998;4.466;2022-08-19T02:04:03;20.17;;;12.68;;
68757;SDS011;55747;51.998;4.466;2022-08-19T02:06:31;22.33;;;16.30;;
68757;SDS011;55747;51.998;4.466;2022-08-19T02:08:58;25.02;;;16.02;;
68757;SDS011;55747;51.998;4.466;2022-08-19T02:11:25;26.88;;;18.25;;
68757;SDS011;55747;51.998;4.466;2022-08-19T02:13:59;33.47;;;21.23;;
68757;SDS011;55747;51.998;4.466;2022-08-19T02:16:27;37.75;;;23.52;;
68757;SDS011;55747;51.998;4.466;2022-08-19T02:18:52;40.22;;;23.63;;
68757;SDS011;55747;51.998;4.466;2022-08-19T02:21:18;40.40;;;26.10;;
68757;SDS011;55747;51.998;4.466;2022-08-19T02:23:44;42.22;;;26.98;;
68757;SDS011;55747;51.998;4.466;2022-08-19T02:26:10;48.50;;;29.83;;
68757;SDS011;55747;51.998;4.466;2022-08-19T02:28:37;50.78;;;30.13;;
68757;SDS011;55747;51.998;4.466;2022-08-19T02:31:07;45.63;;;29.45;;
68757;SDS011;55747;51.998;4.466;2022-08-19T02:33:36;50.83;;;30.27;;
68757;SDS011;55747;51.998;4.466;2022-08-19T02:36:05;50.20;;;29.80;;
68757;SDS011;55747;51.998;4.466;2022-08-19T02:38:32;47.60;;;28.90;;
68757;SDS011;55747;51.998;4.466;2022-08-19T02:40:59;48.40;;;29.60;;
68757;SDS011;55747;51.998;4.466;2022-08-19T02:43:32;46.55;;;29.08;;
68757;SDS011;55747;51.998;4.466;2022-08-19T02:46:01;49.80;;;29.42;;
68757;SDS011;55747;51.998;4.466;2022-08-19T02:48:35;54.75;;;29.27;;
68757;SDS011;55747;51.998;4.466;2022-08-19T02:51:00;45.17;;;28.03;;
68757;SDS011;55747;51.998;4.466;2022-08-19T02:53:26;51.75;;;29.48;;
68757;SDS011;55747;51.998;4.466;2022-08-19T02:55:52;52.92;;;29.02;;
68757;SDS011;55747;51.998;4.466;2022-08-19T02:58:18;49.47;;;29.88;;
68757;SDS011;55747;51.998;4.466;2022-08-19T03:00:48;54.42;;;29.83;;
68757;SDS011;55747;51.998;4.466;2022-08-19T03:03:17;49.88;;;29.52;;
68757;SDS011;55747;51.998;4.466;2022-08-19T03:05:43;57.22;;;31.67;;
68757;SDS011;55747;51.998;4.466;2022-08-19T03:08:09;47.45;;;29.92;;
68757;SDS011;55747;51.998;4.466;2022-08-19T03:10:46;52.17;;;30.02;;
68757;SDS011;55747;51.998;4.466;2022-08-19T03:13:16;55.67;;;31.15;;
68757;SDS011;55747;51.998;4.466;2022-08-19T03:15:43;54.28;;;29.85;;
68757;SDS011;55747;51.998;4.466;2022-08-19T03:18:10;53.75;;;31.67;;
68757;SDS011;55747;51.998;4.466;2022-08-19T03:20:46;56.55;;;32.33;;
68757;SDS011;55747;51.998;4.466;2022-08-19T03:23:13;62.63;;;32.67;;
68757;SDS011;55747;51.998;4.466;2022-08-19T03:25:39;57.63;;;33.42;;
68757;SDS011;55747;51.998;4.466;2022-08-19T03:28:08;58.53;;;31.80;;
68757;SDS011;55747;51.998;4.466;2022-08-19T03:30:34;62.35;;;34.58;;
68757;SDS011;55747;51.998;4.466;2022-08-19T03:33:00;64.93;;;34.72;;
68757;SDS011;55747;51.998;4.466;2022-08-19T03:35:25;67.47;;;33.58;;
68757;SDS011;55747;51.998;4.466;2022-08-19T03:37:51;74.63;;;35.83;;
68757;SDS011;55747;51.998;4.466;2022-08-19T03:40:17;73.10;;;36.58;;
68757;SDS011;55747;51.998;4.466;2022-08-19T03:42:43;69.10;;;34.83;;
68757;SDS011;55747;51.998;4.466;2022-08-19T03:45:09;64.80;;;35.83;;
68757;SDS011;55747;51.998;4.466;2022-08-19T03:47:35;71.68;;;35.97;;
68757;SDS011;55747;51.998;4.466;2022-08-19T03:50:02;67.78;;;35.33;;
68757;SDS011;55747;51.998;4.466;2022-08-19T03:52:27;66.88;;;34.97;;
68757;SDS011;55747;51.998;4.466;2022-08-19T03:54:53;61.93;;;33.80;;
68757;SDS011;55747;51.998;4.466;2022-08-19T03:57:18;64.18;;;34.78;;
68757;SDS011;55747;51.998;4.466;2022-08-19T03:59:43;71.88;;;36.92;;
68757;SDS011;55747;51.998;4.466;2022-08-19T04:02:10;73.28;;;38.78;;
68757;SDS011;55747;51.998;4.466;2022-08-19T04:04:37;83.32;;;38.67;;
68757;SDS011;55747;51.998;4.466;2022-08-19T04:07:05;83.82;;;39.88;;
68757;SDS011;55747;51.998;4.466;2022-08-19T04:09:32;83.85;;;41.92;;
68757;SDS011;55747;51.998;4.466;2022-08-19T04:11:58;89.53;;;42.17;;
68757;SDS011;55747;51.998;4.466;2022-08-19T04:14:25;93.20;;;44.05;;
68757;SDS011;55747;51.998;4.466;2022-08-19T04:16:53;97.25;;;44.67;;
68757;SDS011;55747;51.998;4.466;2022-08-19T04:19:19;103.32;;;46.00;;
68757;SDS011;55747;51.998;4.466;2022-08-19T04:21:46;105.43;;;47.55;;
68757;SDS011;55747;51.998;4.466;2022-08-19T04:24:14;104.55;;;46.70;;
68757;SDS011;55747;51.998;4.466;2022-08-19T04:26:39;100.28;;;46.85;;
68757;SDS011;55747;51.998;4.466;2022-08-19T04:29:07;106.22;;;47.28;;
68757;SDS011;55747;51.998;4.466;2022-08-19T04:31:37;103.57;;;47.67;;
68757;SDS011;55747;51.998;4.466;2022-08-19T04:34:04;95.32;;;43.83;;
68757;SDS011;55747;51.998;4.466;2022-08-19T04:36:32;103.03;;;44.60;;
68757;SDS011;55747;51.998;4.466;2022-08-19T04:39:02;91.50;;;42.72;;
68757;SDS011;55747;51.998;4.466;2022-08-19T04:41:30;89.75;;;42.15;;
68757;SDS011;55747;51.998;4.466;2022-08-19T04:44:15;89.93;;;40.78;;
68757;SDS011;55747;51.998;4.466;2022-08-19T04:46:43;83.68;;;39.97;;
68757;SDS011;55747;51.998;4.466;2022-08-19T04:49:09;95.53;;;40.33;;
68757;SDS011;55747;51.998;4.466;2022-08-19T04:51:34;90.15;;;41.50;;
68757;SDS011;55747;51.998;4.466;2022-08-19T04:54:01;81.82;;;38.95;;
68757;SDS011;55747;51.998;4.466;2022-08-19T04:56:28;80.75;;;37.78;;
68757;SDS011;55747;51.998;4.466;2022-08-19T04:58:54;82.75;;;37.72;;
68757;SDS011;55747;51.998;4.466;2022-08-19T05:01:22;81.93;;;37.78;;
68757;SDS011;55747;51.998;4.466;2022-08-19T05:03:49;78.28;;;36.80;;
68757;SDS011;55747;51.998;4.466;2022-08-19T05:06:16;82.10;;;38.17;;
68757;SDS011;55747;51.998;4.466;2022-08-19T05:08:43;79.75;;;37.20;;
68757;SDS011;55747;51.998;4.466;2022-08-19T05:13:36;82.65;;;37.38;;
68757;SDS011;55747;51.998;4.466;2022-08-19T05:16:01;73.20;;;37.20;;
68757;SDS011;55747;51.998;4.466;2022-08-19T05:18:27;79.88;;;37.28;;
68757;SDS011;55747;51.998;4.466;2022-08-19T05:21:12;81.95;;;39.63;;
68757;SDS011;55747;51.998;4.466;2022-08-19T05:23:58;81.65;;;39.25;;
68757;SDS011;55747;51.998;4.466;2022-08-19T05:26:24;79.43;;;36.73;;
68757;SDS011;55747;51.998;4.466;2022-08-19T05:28:55;72.65;;;38.67;;
68757;SDS011;55747;51.998;4.466;2022-08-19T05:31:21;74.28;;;37.33;;
68757;SDS011;55747;51.998;4.466;2022-08-19T05:33:47;71.57;;;36.67;;
68757;SDS011;55747;51.998;4.466;2022-08-19T05:36:12;77.07;;;37.40;;
68757;SDS011;55747;51.998;4.466;2022-08-19T05:38:38;70.90;;;36.28;;
68757;SDS011;55747;51.998;4.466;2022-08-19T05:41:12;67.88;;;37.15;;
68757;SDS011;55747;51.998;4.466;2022-08-19T05:43:39;74.32;;;36.25;;
68757;SDS011;55747;51.998;4.466;2022-08-19T05:46:05;64.53;;;35.53;;
68757;SDS011;55747;51.998;4.466;2022-08-19T05:48:32;64.82;;;35.28;;
68757;SDS011;55747;51.998;4.466;2022-08-19T05:50:58;66.13;;;35.10;;
68757;SDS011;55747;51.998;4.466;2022-08-19T05:53:28;63.28;;;33.83;;
68757;SDS011;55747;51.998;4.466;2022-08-19T05:55:53;61.65;;;35.40;;
68757;SDS011;55747;51.998;4.466;2022-08-19T05:58:18;67.67;;;34.83;;
68757;SDS011;55747;51.998;4.466;2022-08-19T06:00:44;59.80;;;33.93;;
68757;SDS011;55747;51.998;4.466;2022-08-19T06:03:09;60.05;;;33.60;;
68757;SDS011;55747;51.998;4.466;2022-08-19T06:05:35;60.60;;;32.08;;
68757;SDS011;55747;51.998;4.466;2022-08-19T06:08:00;51.03;;;31.40;;
68757;SDS011;55747;51.998;4.466;2022-08-19T06:10:26;53.22;;;31.13;;
68757;SDS011;55747;51.998;4.466;2022-08-19T06:12:52;51.47;;;29.10;;
68757;SDS011;55747;51.998;4.466;2022-08-19T06:15:18;56.20;;;32.10;;
68757;SDS011;55747;51.998;4.466;2022-08-19T06:17:44;47.45;;;30.85;;
68757;SDS011;55747;51.998;4.466;2022-08-19T06:20:11;55.58;;;30.92;;
68757;SDS011;55747;51.998;4.466;2022-08-19T06:22:39;51.60;;;31.70;;
68757;SDS011;55747;51.998;4.466;2022-08-19T06:25:06;61.20;;;32.80;;
68757;SDS011;55747;51.998;4.466;2022-08-19T06:27:34;54.13;;;32.70;;
68757;SDS011;55747;51.998;4.466;2022-08-19T06:30:00;47.47;;;30.85;;
68757;SDS011;55747;51.998;4.466;2022-08-19T06:32:26;56.97;;;31.20;;
68757;SDS011;55747;51.998;4.466;2022-08-19T06:34:51;55.53;;;31.40;;
68757;SDS011;55747;51.998;4.466;2022-08-19T06:37:16;54.50;;;33.10;;
68757;SDS011;55747;51.998;4.466;2022-08-19T06:39:42;53.75;;;32.80;;
68757;SDS011;55747;51.998;4.466;2022-08-19T06:42:08;55.38;;;31.35;;
68757;SDS011;55747;51.998;4.466;2022-08-19T06:44:36;48.67;;;31.42;;
68757;SDS011;55747;51.998;4.466;2022-08-19T06:47:04;56.40;;;30.08;;
68757;SDS011;55747;51.998;4.466;2022-08-19T06:49:31;48.78;;;29.00;;
68757;SDS011;55747;51.998;4.466;2022-08-19T06:51:57;50.70;;;28.85;;
68757;SDS011;55747;51.998;4.466;2022-08-19T06:54:23;49.42;;;27.17;;
68757;SDS011;55747;51.998;4.466;2022-08-19T06:56:49;39.65;;;25.27;;
68757;SDS011;55747;51.998;4.466;2022-08-19T06:59:20;44.47;;;26.83;;
68757;SDS011;55747;51.998;4.466;2022-08-19T07:01:51;48.20;;;26.90;;
68757;SDS011;55747;51.998;4.466;2022-08-19T07:04:19;49.05;;;26.45;;
68757;SDS011;55747;51.998;4.466;2022-08-19T07:06:49;39.88;;;25.77;;
68757;SDS011;55747;51.998;4.466;2022-08-19T07:09:16;41.53;;;24.75;;
68757;SDS011;55747;51.998;4.466;2022-08-19T07:11:48;41.95;;;25.08;;
68757;SDS011;55747;51.998;4.466;2022-08-19T07:14:16;42.90;;;24.58;;
68757;SDS011;55747;51.998;4.466;2022-08-19T07:16:43;40.03;;;24.90;;
68757;SDS011;55747;51.998;4.466;2022-08-19T07:19:10;37.80;;;24.17;;
68757;SDS011;55747;51.998;4.466;2022-08-19T07:21:36;33.95;;;23.45;;
68757;SDS011;55747;51.998;4.466;2022-08-19T07:24:02;36.58;;;23.67;;
68757;SDS011;55747;51.998;4.466;2022-08-19T07:26:29;39.65;;;23.73;;
68757;SDS011;55747;51.998;4.466;2022-08-19T07:28:57;34.30;;;21.80;;
68757;SDS011;55747;51.998;4.466;2022-08-19T07:31:24;29.55;;;20.42;;
68757;SDS011;55747;51.998;4.466;2022-08-19T07:33:52;35.78;;;20.02;;
68757;SDS011;55747;51.998;4.466;2022-08-19T07:36:21;33.63;;;20.83;;
68757;SDS011;55747;51.998;4.466;2022-08-19T07:38:49;33.22;;;20.25;;
68757;SDS011;55747;51.998;4.466;2022-08-19T07:41:17;34.85;;;21.48;;
68757;SDS011;55747;51.998;4.466;2022-08-19T07:43:46;28.70;;;19.70;;
68757;SDS011;55747;51.998;4.466;2022-08-19T07:46:12;32.25;;;20.25;;
68757;SDS011;55747;51.998;4.466;2022-08-19T07:48:38;28.33;;;21.02;;
68757;SDS011;55747;51.998;4.466;2022-08-19T07:51:06;35.13;;;21.17;;
68757;SDS011;55747;51.998;4.466;2022-08-19T07:53:33;34.53;;;20.88;;
68757;SDS011;55747;51.998;4.466;2022-08-19T07:56:01;31.77;;;20.23;;
68757;SDS011;55747;51.998;4.466;2022-08-19T07:58:28;27.27;;;18.27;;
68757;SDS011;55747;51.998;4.466;2022-08-19T08:00:54;28.60;;;17.67;;
68757;SDS011;55747;51.998;4.466;2022-08-19T08:03:20;28.77;;;18.27;;
68757;SDS011;55747;51.998;4.466;2022-08-19T08:06:07;30.42;;;16.48;;
68757;SDS011;55747;51.998;4.466;2022-08-19T08:08:52;31.67;;;16.90;;
68757;SDS011;55747;51.998;4.466;2022-08-19T08:11:36;32.42;;;16.83;;
68757;SDS011;55747;51.998;4.466;2022-08-19T08:14:02;27.33;;;15.88;;
68757;SDS011;55747;51.998;4.466;2022-08-19T08:16:30;26.85;;;15.98;;
68757;SDS011;55747;51.998;4.466;2022-08-19T08:18:58;28.52;;;14.45;;
68757;SDS011;55747;51.998;4.466;2022-08-19T08:21:24;25.35;;;14.68;;
68757;SDS011;55747;51.998;4.466;2022-08-19T08:23:49;22.80;;;13.55;;
68757;SDS011;55747;51.998;4.466;2022-08-19T08:26:16;20.02;;;13.20;;
68757;SDS011;55747;51.998;4.466;2022-08-19T08:28:42;27.13;;;13.43;;
68757;SDS011;55747;51.998;4.466;2022-08-19T08:31:07;23.38;;;12.80;;
68757;SDS011;55747;51.998;4.466;2022-08-19T08:33:32;16.70;;;11.10;;
68757;SDS011;55747;51.998;4.466;2022-08-19T08:35:58;20.85;;;11.60;;
68757;SDS011;55747;51.998;4.466;2022-08-19T08:38:23;21.52;;;11.25;;
68757;SDS011;55747;51.998;4.466;2022-08-19T08:40:53;19.90;;;10.50;;
68757;SDS011;55747;51.998;4.466;2022-08-19T08:43:35;16.45;;;11.27;;
68757;SDS011;55747;51.998;4.466;2022-08-19T08:48:36;17.02;;;10.05;;
68757;SDS011;55747;51.998;4.466;2022-08-19T08:51:10;18.48;;;10.13;;
68757;SDS011;55747;51.998;4.466;2022-08-19T08:53:41;14.75;;;9.68;;
68757;SDS011;55747;51.998;4.466;2022-08-19T08:56:10;13.35;;;8.70;;
68757;SDS011;55747;51.998;4.466;2022-08-19T09:01:11;12.63;;;7.78;;
68757;SDS011;55747;51.998;4.466;2022-08-19T09:03:37;14.85;;;7.47;;
68757;SDS011;55747;51.998;4.466;2022-08-19T09:09:10;14.85;;;7.68;;
68757;SDS011;55747;51.998;4.466;2022-08-19T09:17:16;12.73;;;8.70;;
68757;SDS011;55747;51.998;4.466;2022-08-19T09:19:52;14.80;;;8.50;;
68757;SDS011;55747;51.998;4.466;2022-08-19T09:22:30;12.57;;;8.18;;
68757;SDS011;55747;51.998;4.466;2022-08-19T09:24:56;14.55;;;7.85;;
68757;SDS011;55747;51.998;4.466;2022-08-19T09:27:22;11.25;;;7.00;;
68757;SDS011;55747;51.998;4.466;2022-08-19T09:29:51;12.57;;;7.07;;
68757;SDS011;55747;51.998;4.466;2022-08-19T09:32:18;12.82;;;7.13;;
68757;SDS011;55747;51.998;4.466;2022-08-19T09:34:45;12.32;;;6.60;;
68757;SDS011;55747;51.998;4.466;2022-08-19T09:37:10;13.90;;;5.72;;
68757;SDS011;55747;51.998;4.466;2022-08-19T09:39:37;16.63;;;5.40;;
68757;SDS011;55747;51.998;4.466;2022-08-19T09:42:04;11.63;;;5.45;;
68757;SDS011;55747;51.998;4.466;2022-08-19T09:44:34;15.63;;;6.22;;
68757;SDS011;55747;51.998;4.466;2022-08-19T09:46:59;8.63;;;5.25;;
68757;SDS011;55747;51.998;4.466;2022-08-19T09:49:25;8.05;;;4.78;;
68757;SDS011;55747;51.998;4.466;2022-08-19T09:51:50;7.82;;;4.68;;
68757;SDS011;55747;51.998;4.466;2022-08-19T09:54:18;6.55;;;4.57;;
68757;SDS011;55747;51.998;4.466;2022-08-19T09:56:44;8.82;;;4.57;;
68757;SDS011;55747;51.998;4.466;2022-08-19T09:59:09;8.35;;;4.13;;
68757;SDS011;55747;51.998;4.466;2022-08-19T10:01:35;8.25;;;4.13;;
68757;SDS011;55747;51.998;4.466;2022-08-19T10:04:00;6.78;;;3.92;;
68757;SDS011;55747;51.998;4.466;2022-08-19T10:06:28;7.70;;;3.83;;
68757;SDS011;55747;51.998;4.466;2022-08-19T10:08:59;6.38;;;3.65;;
68757;SDS011;55747;51.998;4.466;2022-08-19T10:11:25;8.93;;;4.25;;
68757;SDS011;55747;51.998;4.466;2022-08-19T10:13:51;7.32;;;3.80;;
68757;SDS011;55747;51.998;4.466;2022-08-19T10:16:19;6.28;;;4.20;;
68757;SDS011;55747;51.998;4.466;2022-08-19T10:18:47;6.50;;;4.22;;
68757;SDS011;55747;51.998;4.466;2022-08-19T10:21:15;5.90;;;3.75;;
68757;SDS011;55747;51.998;4.466;2022-08-19T10:23:44;6.97;;;4.00;;
68757;SDS011;55747;51.998;4.466;2022-08-19T10:26:13;8.95;;;3.38;;
68757;SDS011;55747;51.998;4.466;2022-08-19T10:28:40;5.60;;;2.88;;
68757;SDS011;55747;51.998;4.466;2022-08-19T10:31:10;7.00;;;3.20;;
68757;SDS011;55747;51.998;4.466;2022-08-19T10:33:38;4.32;;;2.50;;
68757;SDS011;55747;51.998;4.466;2022-08-19T10:36:05;5.47;;;2.55;;
68757;SDS011;55747;51.998;4.466;2022-08-19T10:38:39;5.82;;;2.65;;
68757;SDS011;55747;51.998;4.466;2022-08-19T10:41:12;4.97;;;2.47;;
68757;SDS011;55747;51.998;4.466;2022-08-19T10:43:39;4.88;;;2.42;;
68757;SDS011;55747;51.998;4.466;2022-08-19T10:46:09;2.95;;;2.30;;
68757;SDS011;55747;51.998;4.466;2022-08-19T10:48:36;4.97;;;2.40;;
68757;SDS011;55747;51.998;4.466;2022-08-19T10:51:02;8.15;;;2.80;;
68757;SDS011;55747;51.998;4.466;2022-08-19T10:53:47;4.38;;;2.35;;
68757;SDS011;55747;51.998;4.466;2022-08-19T10:56:13;6.55;;;2.00;;
68757;SDS011;55747;51.998;4.466;2022-08-19T10:58:57;5.10;;;2.30;;
68757;SDS011;55747;51.998;4.466;2022-08-19T11:01:23;6.13;;;2.30;;
68757;SDS011;55747;51.998;4.466;2022-08-19T11:03:49;4.45;;;2.13;;
68757;SDS011;55747;51.998;4.466;2022-08-19T11:06:15;9.43;;;2.33;;
68757;SDS011;55747;51.998;4.466;2022-08-19T11:08:40;6.22;;;2.28;;
68757;SDS011;55747;51.998;4.466;2022-08-19T11:11:07;5.40;;;2.53;;
68757;SDS011;55747;51.998;4.466;2022-08-19T11:13:34;5.32;;;2.17;;
68757;SDS011;55747;51.998;4.466;2022-08-19T11:18:33;4.77;;;2.00;;
68757;SDS011;55747;51.998;4.466;2022-08-19T11:21:30;5.35;;;2.10;;
68757;SDS011;55747;51.998;4.466;2022-08-19T11:23:58;5.70;;;2.40;;
68757;SDS011;55747;51.998;4.466;2022-08-19T11:26:28;4.07;;;2.17;;
68757;SDS011;55747;51.998;4.466;2022-08-19T11:28:56;5.38;;;2.20;;
68757;SDS011;55747;51.998;4.466;2022-08-19T11:31:24;5.07;;;2.00;;
68757;SDS011;55747;51.998;4.466;2022-08-19T11:33:51;5.43;;;2.03;;
68757;SDS011;55747;51.998;4.466;2022-08-19T11:36:19;3.60;;;1.90;;
68757;SDS011;55747;51.998;4.466;2022-08-19T11:38:45;3.53;;;2.05;;
68757;SDS011;55747;51.998;4.466;2022-08-19T11:41:13;5.63;;;2.00;;
68757;SDS011;55747;51.998;4.466;2022-08-19T11:43:40;3.13;;;1.80;;
68757;SDS011;55747;51.998;4.466;2022-08-19T11:46:09;5.45;;;2.10;;
68757;SDS011;55747;51.998;4.466;2022-08-19T11:48:37;3.55;;;2.10;;
68757;SDS011;55747;51.998;4.466;2022-08-19T11:51:04;4.53;;;2.20;;
68757;SDS011;55747;51.998;4.466;2022-08-19T11:53:31;4.40;;;2.35;;
68757;SDS011;55747;51.998;4.466;2022-08-19T11:55:57;5.28;;;2.50;;
68757;SDS011;55747;51.998;4.466;2022-08-19T11:58:23;5.75;;;2.67;;
68757;SDS011;55747;51.998;4.466;2022-08-19T12:00:51;3.35;;;2.03;;
68757;SDS011;55747;51.998;4.466;2022-08-19T12:03:19;3.47;;;1.77;;
68757;SDS011;55747;51.998;4.466;2022-08-19T12:05:44;3.53;;;2.13;;
68757;SDS011;55747;51.998;4.466;2022-08-19T12:08:13;4.18;;;1.80;;
68757;SDS011;55747;51.998;4.466;2022-08-19T12:10:40;4.57;;;1.63;;
68757;SDS011;55747;51.998;4.466;2022-08-19T12:13:09;3.58;;;1.70;;
68757;SDS011;55747;51.998;4.466;2022-08-19T12:15:43;5.00;;;1.80;;
68757;SDS011;55747;51.998;4.466;2022-08-19T12:18:12;4.38;;;1.90;;
68757;SDS011;55747;51.998;4.466;2022-08-19T12:20:46;3.65;;;1.83;;
68757;SDS011;55747;51.998;4.466;2022-08-19T12:23:12;5.07;;;2.08;;
68757;SDS011;55747;51.998;4.466;2022-08-19T12:25:43;4.97;;;1.83;;
68757;SDS011;55747;51.998;4.466;2022-08-19T12:28:20;4.63;;;2.05;;
68757;SDS011;55747;51.998;4.466;2022-08-19T12:30:47;3.92;;;2.50;;
68757;SDS011;55747;51.998;4.466;2022-08-19T12:33:14;5.80;;;2.10;;
68757;SDS011;55747;51.998;4.466;2022-08-19T12:35:41;4.77;;;2.47;;
68757;SDS011;55747;51.998;4.466;2022-08-19T12:38:08;4.35;;;2.40;;
68757;SDS011;55747;51.998;4.466;2022-08-19T12:40:34;5.32;;;2.17;;
68757;SDS011;55747;51.998;4.466;2022-08-19T12:42:59;4.18;;;2.08;;
68757;SDS011;55747;51.998;4.466;2022-08-19T12:45:27;7.10;;;2.55;;
68757;SDS011;55747;51.998;4.466;2022-08-19T12:47:53;5.47;;;2.60;;
68757;SDS011;55747;51.998;4.466;2022-08-19T12:50:18;5.43;;;2.60;;
68757;SDS011;55747;51.998;4.466;2022-08-19T12:52:44;5.20;;;2.33;;
68757;SDS011;55747;51.998;4.466;2022-08-19T12:55:09;6.18;;;2.63;;
68757;SDS011;55747;51.998;4.466;2022-08-19T12:57:36;4.47;;;2.20;;
68757;SDS011;55747;51.998;4.466;2022-08-19T13:00:09;5.22;;;2.30;;
68757;SDS011;55747;51.998;4.466;2022-08-19T13:02:42;6.32;;;2.35;;
68757;SDS011;55747;51.998;4.466;2022-08-19T13:05:11;4.75;;;2.13;;
68757;SDS011;55747;51.998;4.466;2022-08-19T13:07:39;4.50;;;2.25;;
68757;SDS011;55747;51.998;4.466;2022-08-19T13:10:08;4.13;;;2.40;;
68757;SDS011;55747;51.998;4.466;2022-08-19T13:12:36;3.53;;;2.30;;
68757;SDS011;55747;51.998;4.466;2022-08-19T13:15:03;5.35;;;2.60;;
68757;SDS011;55747;51.998;4.466;2022-08-19T13:17:29;6.47;;;2.50;;
68757;SDS011;55747;51.998;4.466;2022-08-19T13:19:54;6.45;;;2.20;;
68757;SDS011;55747;51.998;4.466;2022-08-19T13:22:20;5.60;;;2.20;;
68757;SDS011;55747;51.998;4.466;2022-08-19T13:24:45;5.03;;;2.07;;
68757;SDS011;55747;51.998;4.466;2022-08-19T13:27:14;2.28;;;1.67;;
68757;SDS011;55747;51.998;4.466;2022-08-19T13:29:40;2.33;;;1.42;;
68757;SDS011;55747;51.998;4.466;2022-08-19T13:32:31;3.70;;;2.00;;
68757;SDS011;55747;51.998;4.466;2022-08-19T13:35:15;3.03;;;1.40;;
68757;SDS011;55747;51.998;4.466;2022-08-19T13:37:41;4.53;;;1.60;;
68757;SDS011;55747;51.998;4.466;2022-08-19T13:40:14;4.82;;;1.90;;
68757;SDS011;55747;51.998;4.466;2022-08-19T13:42:46;3.40;;;1.95;;
68757;SDS011;55747;51.998;4.466;2022-08-19T13:45:17;3.30;;;1.60;;
68757;SDS011;55747;51.998;4.466;2022-08-19T13:47:49;3.75;;;1.60;;
68757;SDS011;55747;51.998;4.466;2022-08-19T13:50:18;2.95;;;1.60;;
68757;SDS011;55747;51.998;4.466;2022-08-19T13:52:45;4.75;;;1.77;;
68757;SDS011;55747;51.998;4.466;2022-08-19T13:55:12;2.95;;;1.77;;
68757;SDS011;55747;51.998;4.466;2022-08-19T13:57:38;3.13;;;1.70;;
68757;SDS011;55747;51.998;4.466;2022-08-19T14:00:06;2.05;;;1.48;;
68757;SDS011;55747;51.998;4.466;2022-08-19T14:02:40;4.65;;;1.65;;
68757;SDS011;55747;51.998;4.466;2022-08-19T14:05:06;3.38;;;1.63;;
68757;SDS011;55747;51.998;4.466;2022-08-19T14:07:34;2.38;;;1.50;;
68757;SDS011;55747;51.998;4.466;2022-08-19T14:09:59;1.77;;;1.30;;
68757;SDS011;55747;51.998;4.466;2022-08-19T14:12:25;3.30;;;1.70;;
68757;SDS011;55747;51.998;4.466;2022-08-19T14:14:50;2.27;;;1.40;;
68757;SDS011;55747;51.998;4.466;2022-08-19T14:17:15;5.90;;;2.10;;
68757;SDS011;55747;51.998;4.466;2022-08-19T14:19:41;3.22;;;1.80;;
68757;SDS011;55747;51.998;4.466;2022-08-19T14:22:07;2.60;;;1.60;;
68757;SDS011;55747;51.998;4.466;2022-08-19T14:24:33;3.42;;;1.48;;
68757;SDS011;55747;51.998;4.466;2022-08-19T14:26:58;2.70;;;1.45;;
68757;SDS011;55747;51.998;4.466;2022-08-19T14:29:24;3.55;;;1.67;;
68757;SDS011;55747;51.998;4.466;2022-08-19T14:31:49;3.70;;;1.60;;
68757;SDS011;55747;51.998;4.466;2022-08-19T14:34:15;4.90;;;1.70;;
68757;SDS011;55747;51.998;4.466;2022-08-19T14:36:40;2.88;;;1.70;;
68757;SDS011;55747;51.998;4.466;2022-08-19T14:39:09;3.10;;;1.95;;
68757;SDS011;55747;51.998;4.466;2022-08-19T14:41:34;3.40;;;1.80;;
68757;SDS011;55747;51.998;4.466;2022-08-19T14:44:00;3.03;;;1.70;;
68757;SDS011;55747;51.998;4.466;2022-08-19T14:46:27;3.35;;;1.90;;
68757;SDS011;55747;51.998;4.466;2022-08-19T14:48:54;5.00;;;1.83;;
68757;SDS011;55747;51.998;4.466;2022-08-19T14:51:21;4.65;;;2.30;;
68757;SDS011;55747;51.998;4.466;2022-08-19T14:53:48;4.40;;;2.25;;